Sunday, April 22, 2018, 5:38 PM EDT
Back to Local

KFWN, Sussex Airport

Location: Sussex, NJ, United States Lat: 41.2
Local Time: 5:38 PM EDT (21:38 GMT) Lon: -74.633
Time Zone: US/Eastern Elev: 419 ft

Show me the last for .
Show Decoded

2018-04-22 16:53 METAR KFWN 222053Z AUTO VRB04KT 10SM CLR 19/M08 A3032 RMK AO2 SLP267 T01891083
                 56014 =
2018-04-22 15:53 METAR KFWN 221953Z AUTO 35006KT 10SM CLR 19/M07 A3032 RMK AO2 SLP268 T01891067 =
2018-04-22 14:53 METAR KFWN 221853Z AUTO 36014G21KT 10SM CLR 18/M08 A3034 RMK AO2 SLP275
                 T01781083 =
2018-04-22 13:53 METAR KFWN 221753Z AUTO VRB06KT 10SM CLR 17/M08 A3036 RMK AO2 SLP281 60000
                 T01671083 10172 20017 56020 =
2018-04-22 12:53 METAR KFWN 221653Z AUTO VRB03KT 10SM CLR 16/M07 A3037 RMK AO2 SLP285 T01561072 =
2018-04-22 11:53 METAR KFWN 221553Z AUTO 36015G22KT 10SM CLR 15/M06 A3040 RMK AO2 SLP296
                 T01501061 =
2018-04-22 10:53 METAR KFWN 221453Z AUTO 00000KT 10SM CLR 13/M06 A3042 RMK AO2 SLP301 60000
                 T01331056 55000 =
2018-04-22 09:53 METAR KFWN 221353Z AUTO 00000KT 10SM CLR 12/M04 A3041 RMK AO2 RAB40E45 SLP300
                 P0000 T01171039 =
2018-04-22 08:53 METAR KFWN 221253Z AUTO 19003KT 10SM CLR 08/M02 A3042 RMK AO2 SLP301 T00831022 =
2018-04-22 07:53 METAR KFWN 221153Z AUTO 00000KT 10SM CLR 02/M02 A3042 RMK AO2 SLP302 T00171022
                 10017 21028 51011 =
2018-04-22 06:53 METAR KFWN 221053Z AUTO 00000KT 10SM CLR M02/M04 A3041 RMK AO2 SLP301 T10221039
                 =
2018-04-22 05:53 METAR KFWN 220953Z AUTO 00000KT 10SM CLR M02/M04 A3039 RMK AO2 SLP294 T10221044
                 =
2018-04-22 04:53 METAR KFWN 220853Z AUTO 00000KT 10SM CLR M02/M04 A3038 RMK AO2 SLP291 T10171039
                 50000 =
2018-04-22 03:53 METAR KFWN 220753Z AUTO 00000KT 10SM CLR M01/M04 A3039 RMK AO2 SLP292 T10061044
                 =
2018-04-22 02:53 METAR KFWN 220653Z AUTO 00000KT 10SM CLR M01/M04 A3039 RMK AO2 SLP292 T10111039
                 =
2018-04-22 01:53 METAR KFWN 220553Z AUTO 00000KT 10SM CLR 01/M03 A3038 RMK AO2 SLP290 T00061033
                 10128 20000 51006 =
2018-04-22 00:53 METAR KFWN 220453Z AUTO 00000KT 10SM CLR 02/M03 A3038 RMK AO2 SLP291 T00171033
                 401561044 =
2018-04-21 23:53 METAR KFWN 220353Z AUTO 00000KT 10SM CLR 04/M03 A3037 RMK AO2 SLP284 T00391033 =
2018-04-21 22:53 METAR KFWN 220253Z AUTO 00000KT 10SM CLR 04/M03 A3036 RMK AO2 SLP285 T00441028
                 51017 =
2018-04-21 21:53 METAR KFWN 220153Z AUTO 00000KT 10SM CLR 08/M04 A3035 RMK AO2 SLP280 T00831044 =
2018-04-21 20:53 METAR KFWN 220053Z AUTO VRB03KT 10SM CLR 12/M07 A3033 RMK AO2 SLP274 T01171067 =
2018-04-21 19:53 METAR KFWN 212353Z AUTO 35004KT 10SM CLR 13/M08 A3031 RMK AO2 SLP268 T01281078
                 10156 20128 53013 =
2018-04-21 18:53 METAR KFWN 212253Z AUTO 32006KT 10SM CLR 14/M07 A3029 RMK AO2 SLP259 T01391072 =
2018-04-21 17:53 METAR KFWN 212153Z AUTO 35011G16KT 10SM CLR 15/M07 A3028 RMK AO2 SLP255
                 T01501072 =

Support USWX by starting your Amazon purchase here.